createdAt,value
2022-08-19T00:01:57.141Z,58.90
2022-08-19T00:04:29.677Z,58.81
2022-08-19T00:06:58.182Z,58.73
2022-08-19T00:09:26.979Z,58.63
2022-08-19T00:11:57.323Z,58.68
2022-08-19T00:14:27.847Z,58.75
2022-08-19T00:16:56.502Z,58.70
2022-08-19T00:19:25.377Z,58.60
2022-08-19T00:21:53.798Z,58.71
2022-08-19T00:24:21.728Z,58.43
2022-08-19T00:26:49.727Z,58.35
2022-08-19T00:29:20.537Z,58.29
2022-08-19T00:31:51.161Z,58.32
2022-08-19T00:34:19.338Z,58.45
2022-08-19T00:36:47.558Z,58.04
2022-08-19T00:39:18.242Z,58.29
2022-08-19T00:41:49.773Z,58.31
2022-08-19T00:44:21.028Z,58.18
2022-08-19T00:46:55.466Z,58.21
2022-08-19T00:49:31.729Z,58.01
2022-08-19T00:52:03.969Z,58.25
2022-08-19T00:54:34.111Z,58.14
2022-08-19T00:57:07.057Z,57.94
2022-08-19T00:59:58.798Z,58.18
2022-08-19T01:02:28.348Z,58.29
2022-08-19T01:04:57.367Z,58.00
2022-08-19T01:07:25.397Z,57.87
2022-08-19T01:09:53.797Z,58.05
2022-08-19T01:12:22.475Z,58.10
2022-08-19T01:14:52.064Z,58.06
2022-08-19T01:17:21.165Z,57.87
2022-08-19T01:19:50.618Z,57.94
2022-08-19T01:22:31.539Z,57.90
2022-08-19T01:25:03.605Z,58.00
2022-08-19T01:27:43.060Z,58.02
2022-08-19T01:30:13.704Z,58.28
2022-08-19T01:32:41.864Z,57.95
2022-08-19T01:35:11.064Z,57.77
2022-08-19T01:37:47.488Z,57.65
2022-08-19T01:40:17.986Z,57.83
2022-08-19T01:42:46.019Z,57.89
2022-08-19T01:45:14.012Z,57.78
2022-08-19T01:47:42.379Z,57.53
2022-08-19T01:50:20.044Z,57.69
2022-08-19T01:52:50.007Z,57.48
2022-08-19T01:55:32.739Z,57.54
2022-08-19T01:58:04.049Z,57.60
2022-08-19T02:00:34.132Z,57.54
2022-08-19T02:03:02.791Z,57.51
2022-08-19T02:05:31.133Z,57.88
2022-08-19T02:08:00.058Z,57.66
2022-08-19T02:10:28.061Z,57.63
2022-08-19T02:12:57.505Z,57.54
2022-08-19T02:15:26.748Z,57.55
2022-08-19T02:17:55.021Z,57.55
2022-08-19T02:20:23.505Z,57.63
2022-08-19T02:22:51.588Z,57.47
2022-08-19T02:25:19.541Z,57.47
2022-08-19T02:27:47.520Z,57.41
2022-08-19T02:30:20.691Z,57.35
2022-08-19T02:32:48.790Z,57.48
2022-08-19T02:35:16.876Z,57.51
2022-08-19T02:38:03.227Z,57.36
2022-08-19T02:40:33.056Z,57.41
2022-08-19T02:43:01.221Z,57.30
2022-08-19T02:45:34.371Z,57.07
2022-08-19T02:48:02.416Z,57.32
2022-08-19T02:50:33.477Z,57.32
2022-08-19T02:53:01.717Z,57.34
2022-08-19T02:55:29.765Z,57.31
2022-08-19T02:57:58.360Z,57.40
2022-08-19T03:00:26.255Z,57.32
2022-08-19T03:02:55.706Z,57.38
2022-08-19T03:05:45.914Z,57.51
2022-08-19T03:08:13.290Z,57.37
2022-08-19T03:10:47.318Z,57.28
2022-08-19T03:13:16.884Z,57.05
2022-08-19T03:15:46.969Z,57.23
2022-08-19T03:18:18.082Z,57.20
2022-08-19T03:20:48.154Z,57.17
2022-08-19T03:23:17.308Z,57.04
2022-08-19T03:25:47.252Z,57.00
2022-08-19T03:28:30.630Z,57.02
2022-08-19T03:31:01.420Z,57.08
2022-08-19T03:33:32.314Z,57.23
2022-08-19T03:36:06.460Z,57.24
2022-08-19T03:38:34.512Z,57.17
2022-08-19T03:41:07.331Z,56.88
2022-08-19T03:43:36.246Z,56.73
2022-08-19T03:46:06.781Z,56.88
2022-08-19T03:48:37.826Z,56.80
2022-08-19T03:51:06.612Z,56.87
2022-08-19T03:53:36.421Z,56.70
2022-08-19T03:56:04.999Z,56.70
2022-08-19T03:58:32.878Z,56.92
2022-08-19T04:01:00.848Z,56.85
2022-08-19T04:03:29.082Z,56.77
2022-08-19T04:05:58.557Z,56.51
2022-08-19T04:08:26.510Z,56.70
2022-08-19T04:10:54.537Z,56.76
2022-08-19T04:13:22.680Z,56.63
2022-08-19T04:15:50.789Z,56.83
2022-08-19T04:18:19.059Z,56.82
2022-08-19T04:20:49.671Z,56.57
2022-08-19T04:23:19.609Z,56.58
2022-08-19T04:25:47.593Z,56.62
2022-08-19T04:28:15.769Z,56.59
2022-08-19T04:30:45.717Z,56.56
2022-08-19T04:33:15.237Z,56.47
2022-08-19T04:35:47.723Z,55.60
2022-08-19T04:38:16.957Z,55.07
2022-08-19T04:41:06.421Z,54.73
2022-08-19T04:43:35.757Z,54.86
2022-08-19T04:46:07.707Z,54.54
2022-08-19T04:48:36.006Z,54.55
2022-08-19T04:51:14.347Z,54.40
2022-08-19T04:53:43.990Z,54.33
2022-08-19T04:56:16.522Z,54.55
2022-08-19T04:58:46.336Z,54.49
2022-08-19T05:01:16.162Z,54.31
2022-08-19T05:03:44.092Z,54.20
2022-08-19T05:06:15.654Z,54.58
2022-08-19T05:08:45.148Z,54.59
2022-08-19T05:11:16.754Z,54.48
2022-08-19T05:13:45.708Z,54.54
2022-08-19T05:16:14.863Z,54.60
2022-08-19T05:19:00.910Z,54.73
2022-08-19T05:21:47.094Z,54.84
2022-08-19T05:24:16.561Z,54.68
2022-08-19T05:26:48.600Z,54.85
2022-08-19T05:29:17.448Z,54.98
2022-08-19T05:31:46.483Z,55.49
2022-08-19T05:34:20.298Z,55.61
2022-08-19T05:36:48.671Z,55.82
2022-08-19T05:39:18.768Z,56.18
2022-08-19T05:41:50.891Z,56.43
2022-08-19T05:44:19.178Z,56.44
2022-08-19T05:46:48.115Z,56.75
2022-08-19T05:49:17.679Z,56.87
2022-08-19T05:51:45.625Z,57.19
2022-08-19T05:54:14.404Z,57.65
2022-08-19T05:56:42.792Z,57.84
2022-08-19T05:59:13.031Z,58.22
2022-08-19T06:01:43.763Z,58.01
2022-08-19T06:04:11.819Z,58.36
2022-08-19T06:06:39.838Z,58.75
2022-08-19T06:09:10.839Z,59.10
2022-08-19T06:11:41.335Z,59.76
2022-08-19T06:14:16.748Z,59.99
2022-08-19T06:16:47.050Z,59.97
2022-08-19T06:19:16.934Z,59.99
2022-08-19T06:21:49.812Z,60.80
2022-08-19T06:24:20.482Z,60.99
2022-08-19T06:26:50.506Z,60.73
2022-08-19T06:29:24.240Z,61.20
2022-08-19T06:31:57.180Z,61.37
2022-08-19T06:34:26.664Z,61.39
2022-08-19T06:36:55.155Z,61.69
2022-08-19T06:39:25.122Z,61.37
2022-08-19T06:41:58.659Z,61.80
2022-08-19T06:44:31.885Z,61.95
2022-08-19T06:47:09.415Z,61.65
2022-08-19T06:49:38.483Z,61.97
2022-08-19T06:52:07.188Z,62.14
2022-08-19T06:54:44.602Z,62.26
2022-08-19T06:57:24.827Z,61.98
2022-08-19T06:59:52.753Z,62.18
2022-08-19T07:02:22.275Z,62.28
2022-08-19T07:04:52.754Z,62.11
2022-08-19T07:07:23.256Z,62.37
2022-08-19T07:10:00.271Z,62.28
2022-08-19T07:12:33.259Z,62.55
2022-08-19T07:15:02.979Z,62.69
2022-08-19T07:17:34.528Z,62.74
2022-08-19T07:20:06.745Z,63.05
2022-08-19T07:22:37.570Z,62.84
2022-08-19T07:25:07.361Z,62.77
2022-08-19T07:27:35.962Z,63.57
2022-08-19T07:30:05.527Z,63.10
2022-08-19T07:32:34.880Z,63.31
2022-08-19T07:35:04.416Z,63.75
2022-08-19T07:37:33.528Z,63.67
2022-08-19T07:40:02.066Z,63.49
2022-08-19T07:42:31.095Z,63.16
2022-08-19T07:44:59.952Z,63.30
2022-08-19T07:47:48.872Z,63.79
2022-08-19T07:50:20.786Z,63.27
2022-08-19T07:52:50.785Z,63.59
2022-08-19T07:55:42.752Z,63.05
2022-08-19T07:58:09.801Z,63.14
2022-08-19T08:00:37.911Z,62.97
2022-08-19T08:03:06.048Z,63.16
2022-08-19T08:05:52.853Z,63.26
2022-08-19T08:08:43.879Z,62.99
2022-08-19T08:11:15.462Z,62.14
2022-08-19T08:13:44.067Z,62.53
2022-08-19T08:16:14.557Z,62.26
2022-08-19T08:18:50.708Z,62.42
2022-08-19T08:21:22.604Z,62.34
2022-08-19T08:23:53.223Z,62.19
2022-08-19T08:26:22.477Z,62.63
2022-08-19T08:28:50.968Z,62.27
2022-08-19T08:31:20.023Z,62.27
2022-08-19T08:33:49.116Z,62.15
2022-08-19T08:36:20.456Z,62.43
2022-08-19T08:38:50.253Z,61.64
2022-08-19T08:41:28.809Z,62.41
2022-08-19T08:43:58.327Z,62.22
2022-08-19T08:46:32.596Z,62.22
2022-08-19T08:49:08.468Z,62.59
2022-08-19T08:54:19.894Z,61.13
2022-08-19T08:56:50.525Z,61.40
2022-08-19T08:59:25.607Z,61.45
2022-08-19T09:01:53.870Z,61.13
2022-08-19T09:04:23.491Z,60.50
2022-08-19T09:07:00.685Z,60.10
2022-08-19T09:09:35.838Z,59.37
2022-08-19T09:12:11.972Z,59.57
2022-08-19T09:14:51.516Z,59.03
2022-08-19T09:17:31.610Z,58.75
2022-08-19T09:20:05.733Z,58.97
2022-08-19T09:22:38.028Z,58.93
2022-08-19T09:25:09.997Z,58.68
2022-08-19T09:27:42.069Z,58.51
2022-08-19T09:30:24.829Z,58.38
2022-08-19T09:32:54.619Z,58.30
2022-08-19T09:35:24.302Z,57.95
2022-08-19T09:37:57.314Z,58.12
2022-08-19T09:40:31.934Z,58.41
2022-08-19T09:43:11.845Z,58.10
2022-08-19T09:45:42.185Z,58.01
2022-08-19T09:48:11.693Z,57.80
2022-08-19T09:50:52.014Z,57.62
2022-08-19T09:53:25.263Z,57.84
2022-08-19T09:55:57.148Z,57.90
2022-08-19T09:58:28.613Z,58.46
2022-08-19T10:00:56.833Z,59.01
2022-08-19T10:03:25.585Z,58.92
2022-08-19T10:05:59.551Z,59.06
2022-08-19T10:08:31.253Z,59.30
2022-08-19T10:11:27.426Z,59.13
2022-08-19T10:13:50.939Z,59.30
2022-08-19T10:16:22.503Z,59.26
2022-08-19T10:18:58.655Z,59.80
2022-08-19T10:21:29.241Z,59.25
2022-08-19T10:24:04.904Z,58.86
2022-08-19T10:26:43.009Z,58.92
2022-08-19T10:29:11.479Z,58.59
2022-08-19T10:32:00.371Z,58.72
2022-08-19T10:34:28.668Z,58.99
2022-08-19T10:37:01.232Z,58.88
2022-08-19T10:39:31.647Z,58.84
2022-08-19T10:42:08.639Z,58.86
2022-08-19T10:44:37.435Z,59.34
2022-08-19T10:47:17.659Z,59.18
2022-08-19T10:50:11.978Z,59.10
2022-08-19T10:52:48.989Z,59.18
2022-08-19T10:55:37.365Z,59.26
2022-08-19T10:58:11.493Z,59.36
2022-08-19T11:00:39.509Z,59.15
2022-08-19T11:03:09.585Z,59.33
2022-08-19T11:05:39.963Z,59.27
2022-08-19T11:08:23.222Z,58.97
2022-08-19T11:10:54.481Z,59.30
2022-08-19T11:13:24.198Z,59.00
2022-08-19T11:16:00.889Z,58.88
2022-08-19T11:18:31.956Z,59.07
2022-08-19T11:21:08.002Z,59.02
2022-08-19T11:23:36.152Z,59.17
2022-08-19T11:26:04.142Z,58.74
2022-08-19T11:28:33.489Z,58.70
2022-08-19T11:31:04.269Z,58.56
2022-08-19T11:33:32.552Z,58.51
2022-08-19T11:36:01.678Z,58.79
2022-08-19T11:38:30.209Z,58.48
2022-08-19T11:40:59.118Z,58.36
2022-08-19T11:43:28.175Z,58.21
2022-08-19T11:45:57.982Z,58.40
2022-08-19T11:48:27.297Z,58.15
2022-08-19T11:50:57.401Z,58.07
2022-08-19T11:53:25.647Z,58.01
2022-08-19T11:55:57.543Z,58.12
2022-08-19T11:58:26.105Z,57.87
2022-08-19T12:00:54.569Z,57.80
2022-08-19T12:03:24.184Z,57.86
2022-08-19T12:05:52.330Z,57.89
2022-08-19T12:08:20.584Z,57.74
2022-08-19T12:10:48.630Z,57.79
2022-08-19T12:13:19.596Z,57.70
2022-08-19T12:15:49.335Z,57.73
2022-08-19T12:18:17.301Z,57.50
2022-08-19T12:20:47.099Z,57.64
2022-08-19T12:23:15.494Z,57.29
2022-08-19T12:25:51.117Z,57.12
2022-08-19T12:28:20.150Z,57.05
2022-08-19T12:30:48.580Z,56.75
2022-08-19T12:33:16.652Z,56.95
2022-08-19T12:35:47.602Z,57.13
2022-08-19T12:38:16.448Z,57.13
2022-08-19T12:40:48.017Z,57.05
2022-08-19T12:43:16.630Z,57.42
2022-08-19T12:45:46.014Z,57.26
2022-08-19T12:48:33.780Z,57.26
2022-08-19T12:51:08.739Z,57.50
2022-08-19T12:53:39.338Z,57.69
2022-08-19T12:56:12.340Z,57.49
2022-08-19T12:58:42.587Z,57.77
2022-08-19T13:01:22.570Z,57.71
2022-08-19T13:03:53.144Z,57.72
2022-08-19T13:06:22.870Z,57.83
2022-08-19T13:08:50.783Z,57.74
2022-08-19T13:11:21.549Z,57.89
2022-08-19T13:13:52.006Z,57.40
2022-08-19T13:16:22.941Z,57.65
2022-08-19T13:18:51.371Z,57.48
2022-08-19T13:21:20.857Z,57.61
2022-08-19T13:23:53.751Z,57.73
2022-08-19T13:26:22.835Z,57.52
2022-08-19T13:29:09.024Z,57.56
2022-08-19T13:31:56.100Z,57.51
2022-08-19T13:34:30.725Z,57.42
2022-08-19T13:36:59.692Z,57.69
2022-08-19T13:39:28.979Z,57.68
2022-08-19T13:41:57.355Z,57.65
2022-08-19T13:44:25.234Z,57.53
2022-08-19T13:46:54.019Z,57.55
2022-08-19T13:49:24.131Z,57.40
2022-08-19T13:51:52.139Z,57.52
2022-08-19T13:54:20.108Z,57.65
2022-08-19T13:56:49.605Z,57.79
2022-08-19T13:59:18.052Z,57.70
2022-08-19T14:01:46.035Z,57.67
2022-08-19T14:04:14.006Z,57.62
2022-08-19T14:06:43.108Z,57.50
2022-08-19T14:09:11.038Z,57.63
2022-08-19T14:11:39.068Z,57.41
2022-08-19T14:14:08.401Z,57.73
2022-08-19T14:16:36.310Z,57.46
2022-08-19T14:19:04.325Z,57.73
2022-08-19T14:21:32.244Z,57.56
2022-08-19T14:24:00.366Z,57.61
2022-08-19T14:26:28.317Z,57.56
2022-08-19T14:28:58.817Z,57.68
2022-08-19T14:31:30.872Z,57.59
2022-08-19T14:33:59.224Z,57.30
2022-08-19T14:36:27.699Z,57.46
2022-08-19T14:38:55.670Z,57.41
2022-08-19T14:41:25.777Z,57.41
2022-08-19T14:43:56.546Z,57.54
2022-08-19T14:46:29.504Z,57.45
2022-08-19T14:49:00.319Z,57.45
2022-08-19T14:51:28.638Z,57.37
2022-08-19T14:53:57.133Z,57.52
2022-08-19T14:56:27.440Z,57.61
2022-08-19T14:58:55.652Z,57.43
2022-08-19T15:01:24.719Z,57.65
2022-08-19T15:03:54.800Z,57.61
2022-08-19T15:06:25.187Z,57.48
2022-08-19T15:08:54.371Z,57.72
2022-08-19T15:11:24.482Z,57.70
2022-08-19T15:13:53.888Z,57.51
2022-08-19T15:16:22.567Z,57.78
2022-08-19T15:18:52.400Z,57.82
2022-08-19T15:21:26.731Z,58.40
2022-08-19T15:23:58.419Z,58.66
2022-08-19T15:26:27.276Z,58.49
2022-08-19T15:28:55.532Z,58.65
2022-08-19T15:31:27.994Z,59.06
2022-08-19T15:33:58.601Z,59.02
2022-08-19T15:36:27.277Z,59.03
2022-08-19T15:38:57.055Z,59.19
2022-08-19T15:41:28.053Z,59.54
2022-08-19T15:43:59.753Z,60.41
2022-08-19T15:46:31.060Z,60.83
2022-08-19T15:49:00.607Z,61.14
2022-08-19T15:51:30.412Z,61.10
2022-08-19T15:54:00.758Z,61.36
2022-08-19T15:56:57.937Z,61.49
2022-08-19T15:59:47.110Z,61.41
2022-08-19T16:02:33.851Z,61.38
2022-08-19T16:05:19.601Z,61.48
2022-08-19T16:07:48.589Z,61.25
2022-08-19T16:10:26.344Z,61.13
2022-08-19T16:12:56.055Z,61.03
2022-08-19T16:15:24.531Z,60.75
2022-08-19T16:17:56.449Z,61.16
2022-08-19T16:20:26.268Z,61.19
2022-08-19T16:22:55.550Z,61.35
2022-08-19T16:25:27.660Z,61.43
2022-08-19T16:28:07.879Z,61.49
2022-08-19T16:30:37.864Z,61.58
2022-08-19T16:33:05.826Z,61.51
2022-08-19T16:35:33.839Z,61.71
2022-08-19T16:38:02.621Z,61.65
2022-08-19T16:40:31.953Z,61.19
2022-08-19T16:42:59.934Z,60.83
2022-08-19T16:45:28.005Z,60.89
2022-08-19T16:47:58.111Z,60.98
2022-08-19T16:50:46.215Z,61.06
2022-08-19T16:53:14.062Z,61.21
2022-08-19T16:55:43.558Z,61.04
2022-08-19T16:58:11.535Z,61.50
2022-08-19T17:00:39.776Z,61.50
2022-08-19T17:03:14.606Z,61.63
2022-08-19T17:05:44.081Z,61.68
2022-08-19T17:08:12.131Z,61.94
2022-08-19T17:10:45.573Z,62.27
2022-08-19T17:13:22.448Z,62.12
2022-08-19T17:15:50.565Z,62.39
2022-08-19T17:18:20.044Z,62.47
2022-08-19T17:20:48.299Z,62.23
2022-08-19T17:23:17.154Z,62.56
2022-08-19T17:25:45.716Z,62.84
2022-08-19T17:28:17.331Z,62.80
2022-08-19T17:30:47.505Z,62.79
2022-08-19T17:33:16.047Z,62.73
2022-08-19T17:35:44.894Z,62.65
2022-08-19T17:38:16.463Z,62.75
2022-08-19T17:40:45.752Z,62.94
2022-08-19T17:43:15.494Z,62.93
2022-08-19T17:45:44.577Z,63.11
2022-08-19T17:48:14.190Z,63.00
2022-08-19T17:50:42.640Z,63.03
2022-08-19T17:53:14.510Z,63.34
2022-08-19T17:55:42.618Z,63.08
2022-08-19T17:58:16.720Z,63.05
2022-08-19T18:00:53.627Z,63.20
2022-08-19T18:03:23.674Z,63.38
2022-08-19T18:05:51.565Z,63.18
2022-08-19T18:08:19.527Z,63.34
2022-08-19T18:10:47.437Z,63.23
2022-08-19T18:13:17.749Z,63.31
2022-08-19T18:15:46.069Z,63.16
2022-08-19T18:18:15.664Z,63.03
2022-08-19T18:20:46.145Z,62.66
2022-08-19T18:23:44.336Z,62.66
2022-08-19T18:26:02.266Z,62.80
2022-08-19T18:28:30.236Z,63.14
2022-08-19T18:30:58.456Z,63.21
2022-08-19T18:33:26.505Z,62.94
2022-08-19T18:35:55.842Z,62.86
2022-08-19T18:38:41.739Z,62.57
2022-08-19T18:41:28.863Z,62.82
2022-08-19T18:44:15.238Z,62.76
2022-08-19T18:47:01.103Z,62.81
2022-08-19T18:49:31.474Z,62.58
2022-08-19T18:52:03.210Z,62.53
2022-08-19T18:54:31.256Z,62.59
2022-08-19T18:56:59.235Z,62.44
2022-08-19T18:59:29.440Z,62.31
2022-08-19T19:02:00.333Z,62.04
2022-08-19T19:04:33.105Z,61.78
2022-08-19T19:07:02.479Z,61.51
2022-08-19T19:09:30.382Z,61.44
2022-08-19T19:12:00.895Z,61.17
2022-08-19T19:14:48.648Z,60.89
2022-08-19T19:17:17.882Z,61.13
2022-08-19T19:19:46.169Z,60.93
2022-08-19T19:22:19.399Z,60.92
2022-08-19T19:24:47.693Z,60.98
2022-08-19T19:27:20.237Z,60.71
2022-08-19T19:29:52.099Z,60.60
2022-08-19T19:32:22.703Z,60.67
2022-08-19T19:34:51.043Z,60.53
2022-08-19T19:37:21.052Z,60.69
2022-08-19T19:39:49.132Z,60.71
2022-08-19T19:42:21.164Z,60.74
2022-08-19T19:44:50.748Z,60.67
2022-08-19T19:47:19.371Z,60.65
2022-08-19T19:52:41.161Z,60.64
2022-08-19T19:55:11.782Z,60.65
2022-08-19T19:57:40.106Z,60.67
2022-08-19T20:00:10.498Z,60.73
2022-08-19T20:02:38.528Z,60.68
2022-08-19T20:05:07.385Z,60.52
2022-08-19T20:07:52.831Z,60.80
2022-08-19T20:10:22.241Z,60.94
2022-08-19T20:12:51.965Z,60.82
2022-08-19T20:15:21.127Z,60.92
2022-08-19T20:17:49.619Z,61.07
2022-08-19T20:20:19.320Z,61.10
2022-08-19T20:22:48.048Z,61.10
2022-08-19T20:25:17.190Z,61.45
2022-08-19T20:27:46.517Z,61.50
2022-08-19T20:30:19.405Z,61.76
2022-08-19T20:32:48.376Z,61.88
2022-08-19T20:35:19.371Z,61.61
2022-08-19T20:37:47.479Z,61.42
2022-08-19T20:40:16.932Z,61.59
2022-08-19T20:42:51.597Z,61.59
2022-08-19T20:45:33.741Z,61.60
2022-08-19T20:48:02.877Z,61.66
2022-08-19T20:50:32.358Z,61.70
2022-08-19T20:53:00.658Z,61.74
2022-08-19T20:55:30.501Z,61.90
2022-08-19T20:57:59.898Z,62.04
2022-08-19T21:00:29.405Z,62.10
2022-08-19T21:02:57.549Z,62.04
2022-08-19T21:05:30.214Z,62.03
2022-08-19T21:07:58.648Z,62.52
2022-08-19T21:10:27.480Z,62.15
2022-08-19T21:12:55.503Z,62.10
2022-08-19T21:15:24.950Z,62.23
2022-08-19T21:17:52.932Z,62.10
2022-08-19T21:20:21.036Z,62.06
2022-08-19T21:22:48.998Z,62.18
2022-08-19T21:25:18.196Z,61.96
2022-08-19T21:27:46.106Z,62.36
2022-08-19T21:30:14.895Z,62.30
2022-08-19T21:32:44.202Z,62.29
2022-08-19T21:35:12.179Z,62.35
2022-08-19T21:37:42.119Z,62.25
2022-08-19T21:40:11.426Z,62.18
2022-08-19T21:42:39.773Z,62.28
2022-08-19T21:45:08.710Z,62.43
2022-08-19T21:47:36.632Z,62.37
2022-08-19T21:50:07.254Z,62.19
2022-08-19T21:52:35.595Z,62.20
2022-08-19T21:55:04.266Z,62.06
2022-08-19T21:57:32.292Z,62.07
2022-08-19T22:00:00.684Z,62.20
2022-08-19T22:02:29.243Z,62.19
2022-08-19T22:04:57.146Z,62.04
2022-08-19T22:07:28.527Z,62.05
2022-08-19T22:09:56.590Z,62.02
2022-08-19T22:12:27.415Z,62.27
2022-08-19T22:14:56.012Z,61.79
2022-08-19T22:17:24.232Z,61.97
2022-08-19T22:19:52.920Z,62.02
2022-08-19T22:22:24.212Z,61.81
2022-08-19T22:24:55.169Z,61.94
2022-08-19T22:27:23.148Z,62.10
2022-08-19T22:29:52.465Z,61.96
2022-08-19T22:32:28.064Z,61.86
2022-08-19T22:34:58.487Z,62.07
2022-08-19T22:37:26.798Z,61.97
2022-08-19T22:39:56.340Z,61.92
2022-08-19T22:42:25.317Z,61.90
2022-08-19T22:45:00.110Z,61.90
2022-08-19T22:47:29.433Z,61.72
2022-08-19T22:49:59.919Z,61.83
2022-08-19T22:52:26.960Z,61.73
2022-08-19T22:55:00.203Z,61.88
2022-08-19T22:57:28.788Z,61.99
2022-08-19T23:00:01.058Z,61.72
2022-08-19T23:02:32.107Z,61.93
2022-08-19T23:05:02.424Z,61.76
2022-08-19T23:07:30.395Z,61.80
2022-08-19T23:09:59.801Z,61.72
2022-08-19T23:12:30.649Z,61.65
2022-08-19T23:15:02.660Z,61.85
2022-08-19T23:17:30.648Z,61.79
2022-08-19T23:19:59.896Z,61.88
2022-08-19T23:22:29.405Z,61.81
2022-08-19T23:25:02.255Z,61.61
2022-08-19T23:27:47.598Z,61.75
2022-08-19T23:30:27.318Z,61.86
2022-08-19T23:32:55.729Z,61.65
2022-08-19T23:35:24.317Z,61.82
2022-08-19T23:37:52.631Z,61.92
2022-08-19T23:40:22.624Z,61.87
2022-08-19T23:42:51.487Z,61.75
2022-08-19T23:45:23.616Z,61.80
2022-08-19T23:47:53.352Z,61.74
2022-08-19T23:50:21.905Z,62.07
2022-08-19T23:52:52.769Z,61.96
2022-08-19T23:55:26.835Z,62.00
2022-08-19T23:57:55.182Z,61.74
